createdAt,value
2019-05-22T00:01:37.161Z,13.76
2019-05-22T00:04:24.252Z,13.77
2019-05-22T00:06:54.725Z,13.76
2019-05-22T00:09:28.344Z,13.73
2019-05-22T00:11:58.777Z,13.75
2019-05-22T00:14:28.328Z,13.75
2019-05-22T00:16:59.386Z,13.71
2019-05-22T00:19:30.373Z,13.68
2019-05-22T00:22:09.514Z,13.69
2019-05-22T00:24:42.114Z,13.69
2019-05-22T00:27:12.358Z,13.69
2019-05-22T00:29:43.695Z,13.62
2019-05-22T00:32:14.076Z,13.67
2019-05-22T00:34:42.852Z,13.63
2019-05-22T00:37:11.761Z,13.61
2019-05-22T00:39:41.171Z,13.57
2019-05-22T00:42:11.327Z,13.54
2019-05-22T00:44:41.893Z,13.50
2019-05-22T00:47:14.654Z,13.51
2019-05-22T00:49:46.441Z,13.49
2019-05-22T00:52:36.608Z,13.47
2019-05-22T00:55:14.159Z,13.47
2019-05-22T00:57:56.204Z,13.44
2019-05-22T01:00:35.200Z,13.45
2019-05-22T01:03:06.273Z,13.43
2019-05-22T01:05:37.456Z,13.41
2019-05-22T01:08:06.941Z,13.39
2019-05-22T01:10:39.171Z,13.37
2019-05-22T01:13:09.751Z,13.38
2019-05-22T01:15:40.733Z,13.37
2019-05-22T01:18:12.534Z,13.35
2019-05-22T01:20:42.682Z,13.35
2019-05-22T01:23:17.841Z,13.35
2019-05-22T01:25:47.875Z,13.35
2019-05-22T01:28:17.549Z,13.32
2019-05-22T01:31:06.612Z,13.36
2019-05-22T01:33:44.354Z,13.34
2019-05-22T01:36:32.486Z,13.34
2019-05-22T01:39:16.831Z,13.28
2019-05-22T01:41:50.344Z,13.26
2019-05-22T01:44:21.067Z,13.24
2019-05-22T01:46:51.347Z,13.22
2019-05-22T01:49:21.944Z,13.23
2019-05-22T01:51:51.151Z,13.25
2019-05-22T01:54:21.745Z,13.21
2019-05-22T01:56:51.605Z,13.22
2019-05-22T01:59:21.551Z,13.20
2019-05-22T02:01:51.947Z,13.19
2019-05-22T02:04:21.913Z,13.20
2019-05-22T02:06:51.421Z,13.20
2019-05-22T02:09:30.736Z,13.20
2019-05-22T02:12:08.190Z,13.20
2019-05-22T02:14:41.532Z,13.19
2019-05-22T02:17:12.064Z,13.19
2019-05-22T02:19:41.845Z,13.14
2019-05-22T02:22:12.985Z,13.13
2019-05-22T02:24:42.027Z,13.12
2019-05-22T02:27:12.749Z,13.10
2019-05-22T02:29:41.698Z,13.09
2019-05-22T02:32:13.836Z,13.06
2019-05-22T02:34:43.958Z,13.07
2019-05-22T02:37:14.316Z,13.05
2019-05-22T02:39:43.003Z,13.07
2019-05-22T02:42:16.237Z,13.06
2019-05-22T02:44:45.147Z,12.93
2019-05-22T02:47:19.682Z,12.92
2019-05-22T02:49:48.788Z,12.91
2019-05-22T02:52:17.462Z,12.85
2019-05-22T02:54:47.418Z,12.77
2019-05-22T02:57:16.636Z,12.76
2019-05-22T02:59:45.879Z,12.72
2019-05-22T03:02:15.731Z,12.69
2019-05-22T03:05:07.088Z,12.69
2019-05-22T03:07:36.886Z,12.69
2019-05-22T03:10:07.913Z,12.68
2019-05-22T03:12:38.609Z,12.69
2019-05-22T03:15:13.206Z,12.70
2019-05-22T03:17:45.541Z,12.70
2019-05-22T03:20:21.028Z,12.72
2019-05-22T03:23:28.130Z,12.73
2019-05-22T03:25:56.992Z,12.73
2019-05-22T03:28:26.932Z,12.69
2019-05-22T03:30:55.619Z,12.69
2019-05-22T03:33:24.763Z,12.70
2019-05-22T03:36:05.688Z,12.69
2019-05-22T03:38:34.373Z,12.69
2019-05-22T03:41:04.136Z,12.63
2019-05-22T03:43:33.378Z,12.66
2019-05-22T03:46:10.946Z,12.65
2019-05-22T03:48:40.283Z,12.63
2019-05-22T03:51:13.358Z,12.50
2019-05-22T03:53:43.769Z,12.48
2019-05-22T03:56:13.293Z,12.43
2019-05-22T03:58:42.115Z,12.38
2019-05-22T04:01:12.397Z,12.36
2019-05-22T04:03:41.068Z,12.35
2019-05-22T04:06:09.859Z,12.37
2019-05-22T04:08:39.227Z,12.35
2019-05-22T04:11:10.237Z,12.39
2019-05-22T04:13:40.059Z,12.32
2019-05-22T04:16:12.635Z,12.34
2019-05-22T04:18:41.718Z,12.30
2019-05-22T04:21:10.637Z,12.31
2019-05-22T04:23:39.890Z,12.28
2019-05-22T04:26:11.836Z,12.30
2019-05-22T04:28:54.972Z,12.28
2019-05-22T04:31:39.183Z,12.32
2019-05-22T04:34:07.857Z,12.33
2019-05-22T04:36:37.574Z,12.42
2019-05-22T04:39:11.451Z,12.42
2019-05-22T04:41:40.623Z,12.45
2019-05-22T04:44:09.308Z,12.40
2019-05-22T04:46:38.262Z,12.50
2019-05-22T04:49:07.706Z,12.51
2019-05-22T04:51:36.403Z,12.52
2019-05-22T04:54:05.121Z,12.54
2019-05-22T04:56:33.977Z,12.49
2019-05-22T04:59:03.564Z,12.46
2019-05-22T05:01:32.533Z,12.50
2019-05-22T05:04:01.415Z,12.56
2019-05-22T05:06:33.712Z,12.63
2019-05-22T05:09:03.969Z,12.67
2019-05-22T05:11:33.853Z,12.71
2019-05-22T05:14:02.539Z,12.79
2019-05-22T05:16:31.283Z,12.68
2019-05-22T05:19:00.367Z,12.67
2019-05-22T05:21:29.202Z,12.59
2019-05-22T05:23:57.903Z,12.60
2019-05-22T05:26:26.731Z,12.55
2019-05-22T05:28:55.755Z,12.49
2019-05-22T05:31:25.720Z,12.42
2019-05-22T05:34:27.420Z,12.47
2019-05-22T05:36:57.225Z,12.47
2019-05-22T05:40:08.201Z,12.47
2019-05-22T05:42:37.944Z,12.53
2019-05-22T05:45:08.864Z,12.65
2019-05-22T05:47:38.634Z,12.67
2019-05-22T05:50:10.512Z,12.69
2019-05-22T05:52:40.246Z,12.59
2019-05-22T05:55:09.559Z,12.53
2019-05-22T05:58:22.926Z,12.51
2019-05-22T06:00:56.240Z,12.53
2019-05-22T06:03:34.581Z,12.39
2019-05-22T06:06:12.482Z,12.48
2019-05-22T06:08:41.926Z,12.61
2019-05-22T06:11:45.017Z,12.59
2019-05-22T06:14:22.194Z,12.54
2019-05-22T06:17:40.292Z,12.64
2019-05-22T06:20:11.753Z,12.60
2019-05-22T06:22:43.413Z,12.60
2019-05-22T06:25:13.940Z,12.54
2019-05-22T06:27:44.458Z,12.38
2019-05-22T06:30:19.123Z,12.33
2019-05-22T06:33:28.832Z,12.29
2019-05-22T06:35:57.988Z,12.26
2019-05-22T06:39:00.737Z,12.28
2019-05-22T06:41:35.241Z,12.33
2019-05-22T06:44:28.299Z,12.21
2019-05-22T06:46:57.567Z,12.09
2019-05-22T06:49:51.696Z,12.16
2019-05-22T06:52:20.907Z,12.27
2019-05-22T06:54:50.648Z,12.28
2019-05-22T06:57:25.416Z,12.47
2019-05-22T07:00:12.009Z,12.38
2019-05-22T07:02:26.988Z,12.27
2019-05-22T07:04:55.756Z,12.18
2019-05-22T07:07:28.550Z,12.22
2019-05-22T07:09:57.817Z,12.18
2019-05-22T07:12:28.207Z,12.24
2019-05-22T07:15:28.477Z,12.17
2019-05-22T07:17:57.669Z,12.15
2019-05-22T07:20:28.501Z,12.33
2019-05-22T07:22:58.766Z,12.38
2019-05-22T07:25:29.034Z,12.38
2019-05-22T07:27:58.486Z,12.42
2019-05-22T07:30:27.308Z,12.29
2019-05-22T07:32:56.526Z,12.27
2019-05-22T07:35:45.640Z,12.19
2019-05-22T07:37:58.216Z,12.27
2019-05-22T07:40:27.012Z,12.24
2019-05-22T07:42:56.453Z,12.38
2019-05-22T07:45:28.147Z,12.39
2019-05-22T07:47:58.271Z,12.26
2019-05-22T07:50:29.187Z,12.03
2019-05-22T07:52:58.544Z,12.02
2019-05-22T07:55:28.274Z,12.03
2019-05-22T07:58:11.739Z,12.07
2019-05-22T08:00:43.684Z,12.00
2019-05-22T08:03:12.984Z,11.95
2019-05-22T08:05:45.222Z,11.92
2019-05-22T08:08:18.722Z,11.79
2019-05-22T08:10:47.297Z,11.79
2019-05-22T08:13:15.965Z,11.87
2019-05-22T08:15:47.882Z,11.85
2019-05-22T08:18:17.232Z,11.98
2019-05-22T08:20:46.028Z,11.96
2019-05-22T08:23:15.350Z,11.99
2019-05-22T08:25:44.303Z,12.06
2019-05-22T08:28:13.623Z,12.10
2019-05-22T08:30:42.429Z,11.96
2019-05-22T08:33:14.153Z,11.76
2019-05-22T08:35:44.712Z,11.66
2019-05-22T08:38:13.852Z,11.64
2019-05-22T08:40:43.437Z,11.76
2019-05-22T08:43:13.128Z,11.82
2019-05-22T08:45:41.952Z,11.83
2019-05-22T08:48:12.141Z,11.76
2019-05-22T08:50:44.182Z,11.73
2019-05-22T08:53:14.760Z,11.78
2019-05-22T08:55:44.496Z,11.80
2019-05-22T08:58:14.700Z,11.79
2019-05-22T09:00:43.794Z,11.83
2019-05-22T09:03:12.867Z,11.93
2019-05-22T09:05:41.712Z,12.02
2019-05-22T09:08:10.497Z,11.99
2019-05-22T09:10:39.234Z,11.77
2019-05-22T09:13:08.162Z,11.75
2019-05-22T09:15:38.408Z,11.64
2019-05-22T09:18:08.429Z,11.61
2019-05-22T09:20:48.642Z,11.75
2019-05-22T09:23:09.647Z,11.64
2019-05-22T09:25:38.308Z,11.70
2019-05-22T09:28:07.914Z,11.79
2019-05-22T09:30:36.694Z,11.78
2019-05-22T09:33:06.405Z,11.95
2019-05-22T09:35:35.454Z,11.73
2019-05-22T09:38:04.428Z,11.61
2019-05-22T09:40:33.161Z,11.79
2019-05-22T09:43:02.235Z,11.90
2019-05-22T09:45:31.629Z,11.92
2019-05-22T09:48:00.959Z,11.86
2019-05-22T09:50:30.163Z,11.98
2019-05-22T09:52:59.377Z,12.12
2019-05-22T09:55:28.719Z,12.43
2019-05-22T09:57:57.463Z,12.86
2019-05-22T10:00:27.258Z,13.05
2019-05-22T10:02:56.105Z,13.20
2019-05-22T10:05:25.495Z,13.29
2019-05-22T10:08:01.121Z,13.27
2019-05-22T10:10:26.784Z,13.27
2019-05-22T10:12:55.626Z,13.47
2019-05-22T10:15:25.546Z,13.12
2019-05-22T10:17:54.692Z,13.07
2019-05-22T10:20:24.024Z,12.71
2019-05-22T10:22:52.775Z,12.82
2019-05-22T10:25:21.971Z,13.71
2019-05-22T10:27:50.782Z,14.75
2019-05-22T10:30:22.615Z,14.95
2019-05-22T10:32:51.647Z,14.93
2019-05-22T10:35:23.206Z,14.25
2019-05-22T10:37:52.122Z,14.28
2019-05-22T10:40:21.582Z,14.55
2019-05-22T10:42:50.327Z,14.27
2019-05-22T10:45:19.370Z,14.40
2019-05-22T10:47:49.799Z,14.52
2019-05-22T10:50:19.312Z,14.69
2019-05-22T10:52:53.927Z,14.86
2019-05-22T10:55:20.836Z,14.79
2019-05-22T10:57:49.835Z,14.44
2019-05-22T11:00:20.820Z,14.26
2019-05-22T11:02:50.125Z,13.71
2019-05-22T11:05:21.413Z,13.97
2019-05-22T11:07:51.567Z,14.36
2019-05-22T11:10:22.824Z,14.36
2019-05-22T11:12:51.767Z,14.37
2019-05-22T11:15:21.734Z,14.05
2019-05-22T11:17:50.598Z,13.96
2019-05-22T11:20:19.894Z,13.72
2019-05-22T11:22:49.324Z,14.41
2019-05-22T11:25:18.892Z,14.65
2019-05-22T11:27:47.697Z,14.71
2019-05-22T11:30:17.513Z,14.13
2019-05-22T11:32:46.629Z,13.76
2019-05-22T11:35:17.032Z,13.94
2019-05-22T11:37:47.446Z,14.45
2019-05-22T11:40:17.913Z,15.76
2019-05-22T11:42:46.951Z,16.30
2019-05-22T11:45:16.756Z,16.23
2019-05-22T11:47:45.717Z,16.33
2019-05-22T11:50:16.679Z,16.50
2019-05-22T11:52:46.611Z,16.47
2019-05-22T11:55:16.722Z,15.60
2019-05-22T11:57:46.915Z,15.72
2019-05-22T12:00:18.267Z,16.16
2019-05-22T12:02:47.935Z,16.27
2019-05-22T12:05:17.277Z,16.10
2019-05-22T12:07:47.938Z,15.11
2019-05-22T12:10:19.581Z,15.63
2019-05-22T12:12:49.475Z,15.96
2019-05-22T12:15:22.157Z,15.94
2019-05-22T12:17:50.907Z,15.66
2019-05-22T12:20:20.911Z,15.48
2019-05-22T12:22:49.635Z,15.59
2019-05-22T12:25:18.953Z,16.20
2019-05-22T12:27:48.044Z,16.67
2019-05-22T12:30:18.908Z,16.59
2019-05-22T12:32:48.204Z,16.47
2019-05-22T12:35:17.934Z,16.36
2019-05-22T12:37:47.010Z,16.11
2019-05-22T12:40:19.086Z,16.73
2019-05-22T12:42:48.684Z,17.42
2019-05-22T12:45:23.470Z,17.98
2019-05-22T12:47:53.389Z,17.42
2019-05-22T12:50:22.478Z,17.16
2019-05-22T12:52:52.078Z,16.90
2019-05-22T12:55:21.432Z,17.46
2019-05-22T12:57:50.788Z,18.15
2019-05-22T13:00:22.411Z,18.42
2019-05-22T13:02:52.102Z,17.97
2019-05-22T13:05:21.617Z,17.03
2019-05-22T13:07:51.700Z,17.40
2019-05-22T13:10:21.357Z,17.70
2019-05-22T13:12:50.196Z,17.28
2019-05-22T13:15:19.937Z,18.24
2019-05-22T13:17:49.091Z,19.83
2019-05-22T13:20:40.632Z,18.93
2019-05-22T13:22:55.054Z,17.84
2019-05-22T13:25:26.198Z,17.86
2019-05-22T13:27:55.175Z,18.40
2019-05-22T13:30:28.731Z,20.24
2019-05-22T13:32:57.116Z,22.95
2019-05-22T13:35:28.079Z,23.30
2019-05-22T13:37:58.102Z,19.65
2019-05-22T13:40:28.782Z,18.26
2019-05-22T13:42:58.786Z,19.60
2019-05-22T13:45:30.195Z,20.39
2019-05-22T13:47:59.308Z,20.93
2019-05-22T13:50:29.932Z,20.41
2019-05-22T13:53:00.598Z,21.07
2019-05-22T13:55:30.139Z,21.07
2019-05-22T13:57:59.795Z,22.17
2019-05-22T14:00:28.816Z,19.88
2019-05-22T14:02:58.063Z,17.83
2019-05-22T14:05:28.899Z,17.62
2019-05-22T14:07:58.074Z,17.82
2019-05-22T14:10:27.907Z,19.85
2019-05-22T14:12:57.191Z,19.84
2019-05-22T14:15:26.413Z,19.34
2019-05-22T14:17:55.729Z,18.40
2019-05-22T14:20:25.573Z,18.25
2019-05-22T14:22:54.733Z,18.35
2019-05-22T14:25:25.747Z,17.89
2019-05-22T14:27:54.888Z,17.32
2019-05-22T14:30:25.403Z,17.97
2019-05-22T14:32:54.613Z,18.88
2019-05-22T14:35:25.627Z,19.63
2019-05-22T14:37:54.649Z,19.44
2019-05-22T14:40:23.495Z,18.33
2019-05-22T14:42:52.551Z,17.39
2019-05-22T14:45:21.571Z,16.98
2019-05-22T14:47:50.260Z,17.33
2019-05-22T14:50:19.692Z,18.43
2019-05-22T14:52:48.462Z,20.93
2019-05-22T14:55:17.685Z,21.57
2019-05-22T14:57:47.502Z,22.87
2019-05-22T15:00:19.554Z,20.73
2019-05-22T15:02:54.294Z,18.53
2019-05-22T15:05:19.417Z,18.15
2019-05-22T15:07:48.086Z,18.13
2019-05-22T15:10:18.041Z,18.33
2019-05-22T15:12:47.942Z,19.37
2019-05-22T15:15:17.381Z,18.67
2019-05-22T15:17:46.320Z,18.62
2019-05-22T15:20:17.262Z,20.10
2019-05-22T15:22:46.103Z,19.19
2019-05-22T15:25:15.218Z,18.36
2019-05-22T15:27:44.599Z,18.55
2019-05-22T15:30:15.445Z,17.75
2019-05-22T15:32:44.641Z,17.17
2019-05-22T15:35:14.330Z,17.91
2019-05-22T15:37:43.472Z,18.32
2019-05-22T15:40:12.563Z,19.73
2019-05-22T15:42:43.800Z,20.48
2019-05-22T15:45:16.040Z,20.10
2019-05-22T15:47:56.853Z,19.95
2019-05-22T15:50:26.626Z,19.82
2019-05-22T15:53:01.352Z,19.82
2019-05-22T15:55:31.220Z,19.56
2019-05-22T15:58:01.733Z,20.40
2019-05-22T16:00:33.668Z,22.92
2019-05-22T16:03:11.064Z,23.51
2019-05-22T16:05:41.579Z,23.62
2019-05-22T16:08:11.243Z,20.82
2019-05-22T16:10:42.956Z,19.09
2019-05-22T16:13:16.393Z,18.19
2019-05-22T16:15:49.001Z,17.82
2019-05-22T16:18:22.114Z,17.44
2019-05-22T16:20:50.125Z,17.33
2019-05-22T16:23:21.453Z,20.01
2019-05-22T16:25:52.343Z,20.38
2019-05-22T16:28:22.541Z,19.37
2019-05-22T16:30:52.328Z,18.94
2019-05-22T16:33:23.623Z,21.98
2019-05-22T16:35:52.851Z,23.60
2019-05-22T16:38:23.446Z,25.04
2019-05-22T16:40:52.781Z,25.77
2019-05-22T16:43:21.614Z,25.47
2019-05-22T16:45:51.660Z,25.94
2019-05-22T16:48:29.152Z,25.72
2019-05-22T16:50:52.610Z,25.61
2019-05-22T16:53:23.409Z,25.84
2019-05-22T16:55:52.227Z,25.58
2019-05-22T16:58:21.195Z,25.13
2019-05-22T17:00:50.015Z,25.44
2019-05-22T17:03:19.617Z,25.07
2019-05-22T17:05:48.379Z,26.43
2019-05-22T17:08:18.469Z,26.19
2019-05-22T17:10:48.672Z,25.57
2019-05-22T17:13:18.382Z,26.10
2019-05-22T17:15:47.366Z,26.87
2019-05-22T17:18:17.097Z,26.56
2019-05-22T17:20:46.951Z,26.20
2019-05-22T17:23:16.546Z,26.61
2019-05-22T17:25:45.829Z,28.21
2019-05-22T17:28:16.198Z,28.92
2019-05-22T17:30:46.116Z,29.28
2019-05-22T17:33:15.230Z,27.50
2019-05-22T17:35:45.174Z,26.57
2019-05-22T17:38:15.038Z,26.78
2019-05-22T17:40:44.483Z,27.10
2019-05-22T17:43:14.685Z,26.89
2019-05-22T17:45:44.717Z,26.79
2019-05-22T17:48:15.180Z,26.32
2019-05-22T17:50:44.998Z,25.98
2019-05-22T17:53:13.803Z,25.99
2019-05-22T17:55:43.944Z,25.87
2019-05-22T17:58:13.249Z,25.84
2019-05-22T18:00:45.524Z,24.77
2019-05-22T18:03:15.389Z,23.32
2019-05-22T18:05:44.237Z,20.98
2019-05-22T18:08:13.330Z,17.48
2019-05-22T18:10:44.250Z,17.48
2019-05-22T18:13:15.172Z,16.16
2019-05-22T18:15:43.915Z,15.77
2019-05-22T18:18:12.880Z,16.73
2019-05-22T18:20:43.603Z,17.77
2019-05-22T18:23:12.014Z,17.17
2019-05-22T18:25:40.741Z,17.16
2019-05-22T18:28:10.816Z,17.83
2019-05-22T18:30:41.592Z,16.86
2019-05-22T18:33:10.618Z,16.66
2019-05-22T18:35:39.717Z,17.01
2019-05-22T18:38:08.768Z,17.14
2019-05-22T18:40:37.605Z,16.70
2019-05-22T18:43:06.348Z,15.81
2019-05-22T18:45:36.329Z,14.69
2019-05-22T18:48:05.798Z,14.33
2019-05-22T18:50:35.534Z,14.08
2019-05-22T18:53:04.705Z,13.81
2019-05-22T18:55:33.613Z,13.52
2019-05-22T18:58:02.765Z,13.29
2019-05-22T19:00:32.863Z,13.18
2019-05-22T19:03:01.615Z,13.15
2019-05-22T19:05:33.649Z,13.19
2019-05-22T19:08:02.417Z,13.22
2019-05-22T19:10:31.742Z,13.14
2019-05-22T19:13:00.684Z,13.10
2019-05-22T19:15:29.779Z,12.89
2019-05-22T19:17:58.609Z,12.75
2019-05-22T19:20:27.439Z,12.60
2019-05-22T19:23:00.808Z,12.50
2019-05-22T19:25:27.505Z,12.39
2019-05-22T19:27:56.833Z,12.12
2019-05-22T19:30:26.229Z,12.10
2019-05-22T19:32:55.068Z,12.13
2019-05-22T19:35:23.751Z,11.91
2019-05-22T19:37:52.493Z,11.79
2019-05-22T19:40:21.918Z,11.99
2019-05-22T19:42:50.976Z,11.92
2019-05-22T19:45:19.994Z,11.92
2019-05-22T19:47:55.761Z,11.79
2019-05-22T19:50:25.269Z,11.64
2019-05-22T19:52:55.508Z,11.49
2019-05-22T19:55:27.660Z,11.27
2019-05-22T19:57:57.157Z,11.05
2019-05-22T20:00:26.360Z,10.96
2019-05-22T20:02:56.083Z,10.78
2019-05-22T20:05:25.496Z,10.58
2019-05-22T20:07:54.819Z,10.54
2019-05-22T20:10:23.943Z,10.44
2019-05-22T20:12:52.822Z,10.31
2019-05-22T20:15:22.559Z,10.18
2019-05-22T20:17:51.304Z,9.99
2019-05-22T20:20:20.805Z,9.88
2019-05-22T20:22:50.309Z,9.88
2019-05-22T20:25:20.408Z,9.93
2019-05-22T20:27:49.095Z,9.90
2019-05-22T20:30:20.154Z,9.85
2019-05-22T20:32:49.951Z,9.87
2019-05-22T20:35:18.821Z,9.66
2019-05-22T20:37:48.852Z,9.53
2019-05-22T20:40:19.182Z,9.43
2019-05-22T20:42:48.209Z,9.35
2019-05-22T20:45:21.349Z,9.04
2019-05-22T20:47:57.413Z,9.00
2019-05-22T20:50:26.755Z,8.93
2019-05-22T20:52:56.064Z,8.87
2019-05-22T20:55:25.110Z,8.83
2019-05-22T20:57:54.144Z,8.82
2019-05-22T21:00:23.396Z,8.84
2019-05-22T21:02:58.279Z,8.81
2019-05-22T21:05:27.518Z,8.73
2019-05-22T21:07:59.933Z,8.41
2019-05-22T21:10:29.868Z,8.48
2019-05-22T21:12:58.830Z,8.21
2019-05-22T21:15:29.475Z,8.16
2019-05-22T21:17:58.830Z,7.95
2019-05-22T21:20:30.493Z,8.08
2019-05-22T21:22:59.823Z,8.04
2019-05-22T21:25:29.415Z,8.30
2019-05-22T21:27:58.455Z,8.40
2019-05-22T21:30:27.889Z,8.46
2019-05-22T21:32:56.857Z,8.43
2019-05-22T21:35:25.980Z,8.32
2019-05-22T21:37:55.645Z,8.26
2019-05-22T21:40:25.162Z,8.35
2019-05-22T21:42:55.451Z,8.42
2019-05-22T21:45:25.561Z,8.56
2019-05-22T21:47:54.599Z,8.51
2019-05-22T21:50:23.607Z,8.42
2019-05-22T21:52:52.987Z,8.47
2019-05-22T21:55:21.896Z,8.31
2019-05-22T21:57:51.013Z,8.17
2019-05-22T22:00:36.925Z,8.20
2019-05-22T22:03:05.871Z,8.27
2019-05-22T22:05:34.668Z,8.01
2019-05-22T22:08:03.794Z,7.81
2019-05-22T22:10:32.487Z,7.53
2019-05-22T22:13:01.596Z,7.39
2019-05-22T22:15:31.591Z,7.30
2019-05-22T22:18:00.276Z,7.03
2019-05-22T22:20:28.977Z,7.35
2019-05-22T22:22:58.214Z,7.68
2019-05-22T22:25:27.505Z,7.78
2019-05-22T22:27:56.624Z,7.77
2019-05-22T22:30:29.987Z,7.82
2019-05-22T22:33:01.150Z,7.94
2019-05-22T22:35:31.512Z,7.88
2019-05-22T22:38:00.674Z,7.75
2019-05-22T22:40:29.793Z,7.66
2019-05-22T22:43:00.760Z,7.31
2019-05-22T22:45:39.796Z,7.08
2019-05-22T22:48:09.614Z,6.97
2019-05-22T22:50:40.309Z,7.05
2019-05-22T22:53:10.452Z,7.18
2019-05-22T22:55:40.358Z,7.11
2019-05-22T22:58:17.353Z,7.29
2019-05-22T23:00:43.347Z,7.30
2019-05-22T23:03:13.604Z,7.42
2019-05-22T23:05:44.520Z,7.44
2019-05-22T23:08:16.903Z,7.47
2019-05-22T23:10:46.187Z,7.43
2019-05-22T23:13:15.985Z,7.43
2019-05-22T23:15:46.407Z,7.43
2019-05-22T23:18:29.965Z,7.39
2019-05-22T23:20:57.283Z,7.31
2019-05-22T23:23:25.259Z,7.21
2019-05-22T23:25:54.218Z,7.00
2019-05-22T23:28:34.129Z,6.91
2019-05-22T23:30:54.580Z,6.83
2019-05-22T23:33:23.784Z,7.08
2019-05-22T23:35:53.626Z,7.27
2019-05-22T23:38:23.047Z,7.25
2019-05-22T23:40:53.247Z,7.29
2019-05-22T23:43:22.442Z,7.11
2019-05-22T23:45:51.600Z,7.16
2019-05-22T23:48:20.682Z,7.05
2019-05-22T23:50:49.396Z,7.04
2019-05-22T23:53:18.607Z,7.06
2019-05-22T23:55:48.794Z,6.96
2019-05-22T23:58:20.145Z,7.09
